createdAt,value
2018-07-31T00:00:14.120Z,52.80
2018-07-31T00:00:45.833Z,52.80
2018-07-31T00:01:17.573Z,52.90
2018-07-31T00:01:49.292Z,52.90
2018-07-31T00:02:21.021Z,52.90
2018-07-31T00:02:52.750Z,52.90
2018-07-31T00:03:24.511Z,52.90
2018-07-31T00:03:56.395Z,52.90
2018-07-31T00:04:28.126Z,52.80
2018-07-31T00:04:59.853Z,52.80
2018-07-31T00:05:31.576Z,52.80
2018-07-31T00:06:03.292Z,52.80
2018-07-31T00:06:35.025Z,53.30
2018-07-31T00:07:06.857Z,52.80
2018-07-31T00:07:38.591Z,52.90
2018-07-31T00:08:10.298Z,52.90
2018-07-31T00:08:42.050Z,52.90
2018-07-31T00:09:13.764Z,52.90
2018-07-31T00:09:45.485Z,52.90
2018-07-31T00:10:17.204Z,52.80
2018-07-31T00:10:49.153Z,52.90
2018-07-31T00:11:20.870Z,52.90
2018-07-31T00:11:52.605Z,52.80
2018-07-31T00:12:24.341Z,52.80
2018-07-31T00:12:56.070Z,52.80
2018-07-31T00:13:27.785Z,52.70
2018-07-31T00:13:59.497Z,52.80
2018-07-31T00:14:31.229Z,52.70
2018-07-31T00:15:02.956Z,52.80
2018-07-31T00:15:34.674Z,52.80
2018-07-31T00:16:06.430Z,52.80
2018-07-31T00:16:38.160Z,52.90
2018-07-31T00:17:09.876Z,52.80
2018-07-31T00:17:41.607Z,52.80
2018-07-31T00:18:13.335Z,52.80
2018-07-31T00:18:45.041Z,52.80
2018-07-31T00:19:16.767Z,52.90
2018-07-31T00:19:48.570Z,52.80
2018-07-31T00:20:20.295Z,52.80
2018-07-31T00:20:52.034Z,52.80
2018-07-31T00:21:23.756Z,52.80
2018-07-31T00:21:55.489Z,52.80
2018-07-31T00:22:27.211Z,52.80
2018-07-31T00:22:58.942Z,52.90
2018-07-31T00:23:30.685Z,52.80
2018-07-31T00:24:02.397Z,52.90
2018-07-31T00:24:34.119Z,52.80
2018-07-31T00:25:05.839Z,52.80
2018-07-31T00:25:37.569Z,52.90
2018-07-31T00:26:09.293Z,52.90
2018-07-31T00:26:41.022Z,53.10
2018-07-31T00:27:12.732Z,53.00
2018-07-31T00:27:44.456Z,53.10
2018-07-31T00:28:16.178Z,53.10
2018-07-31T00:28:47.899Z,53.00
2018-07-31T00:29:19.627Z,53.60
2018-07-31T00:29:51.360Z,53.00
2018-07-31T00:30:23.073Z,53.00
2018-07-31T00:30:54.806Z,53.00
2018-07-31T00:31:26.536Z,53.00
2018-07-31T00:31:58.257Z,53.00
2018-07-31T00:32:29.992Z,52.80
2018-07-31T00:33:01.911Z,53.10
2018-07-31T00:33:33.634Z,53.10
2018-07-31T00:34:05.358Z,53.00
2018-07-31T00:34:37.073Z,53.10
2018-07-31T00:35:08.796Z,53.10
2018-07-31T00:35:40.509Z,53.10
2018-07-31T00:36:44.228Z,53.10
2018-07-31T00:37:15.964Z,53.10
2018-07-31T00:37:47.694Z,53.00
2018-07-31T00:38:19.440Z,53.00
2018-07-31T00:38:51.180Z,52.90
2018-07-31T00:39:22.894Z,53.00
2018-07-31T00:39:54.617Z,52.90
2018-07-31T00:40:26.342Z,52.90
2018-07-31T00:40:58.069Z,52.90
2018-07-31T00:41:29.809Z,52.90
2018-07-31T00:42:01.556Z,52.80
2018-07-31T00:42:33.278Z,52.80
2018-07-31T00:43:04.997Z,52.80
2018-07-31T00:43:36.718Z,52.80
2018-07-31T00:44:08.479Z,52.80
2018-07-31T00:44:40.217Z,52.80
2018-07-31T00:45:11.924Z,52.80
2018-07-31T00:45:43.659Z,52.80
2018-07-31T00:46:15.399Z,52.80
2018-07-31T00:46:47.132Z,52.80
2018-07-31T00:47:18.861Z,52.90
2018-07-31T00:47:50.573Z,52.90
2018-07-31T00:48:22.321Z,52.90
2018-07-31T00:48:54.050Z,52.90
2018-07-31T00:49:25.770Z,52.90
2018-07-31T00:49:57.494Z,52.90
2018-07-31T00:50:29.220Z,52.90
2018-07-31T00:51:00.936Z,52.90
2018-07-31T00:51:32.657Z,52.90
2018-07-31T00:52:04.378Z,52.90
2018-07-31T00:52:36.140Z,52.90
2018-07-31T00:53:07.865Z,52.80
2018-07-31T00:53:39.580Z,52.80
2018-07-31T00:54:11.300Z,52.80
2018-07-31T00:54:43.022Z,52.80
2018-07-31T00:55:14.740Z,52.80
2018-07-31T00:55:46.511Z,52.80
2018-07-31T00:56:18.234Z,52.80
2018-07-31T00:56:49.956Z,52.80
2018-07-31T00:57:21.665Z,52.80
2018-07-31T00:57:53.442Z,52.70
2018-07-31T00:58:25.161Z,52.70
2018-07-31T00:58:56.891Z,52.70
2018-07-31T00:59:28.616Z,52.70
2018-07-31T01:00:00.341Z,52.70
2018-07-31T01:00:32.084Z,52.60
2018-07-31T01:01:03.800Z,52.70
2018-07-31T01:01:35.533Z,52.60
2018-07-31T01:02:07.266Z,52.50
2018-07-31T01:02:38.987Z,52.50
2018-07-31T01:03:10.711Z,52.50
2018-07-31T01:03:42.434Z,52.50
2018-07-31T01:04:14.163Z,52.50
2018-07-31T01:04:45.904Z,52.60
2018-07-31T01:05:17.624Z,52.40
2018-07-31T01:05:49.345Z,52.40
2018-07-31T01:06:21.080Z,52.40
2018-07-31T01:06:52.808Z,52.30
2018-07-31T01:07:24.541Z,52.20
2018-07-31T01:07:56.272Z,52.20
2018-07-31T01:08:27.999Z,52.30
2018-07-31T01:08:59.752Z,52.30
2018-07-31T01:09:31.474Z,52.20
2018-07-31T01:10:03.200Z,52.20
2018-07-31T01:10:34.918Z,52.10
2018-07-31T01:11:06.666Z,52.10
2018-07-31T01:11:38.430Z,52.10
2018-07-31T01:12:10.155Z,52.10
2018-07-31T01:12:41.907Z,52.10
2018-07-31T01:13:13.602Z,52.20
2018-07-31T01:13:45.326Z,52.10
2018-07-31T01:14:17.064Z,52.10
2018-07-31T01:14:48.790Z,52.10
2018-07-31T01:15:20.530Z,52.20
2018-07-31T01:15:52.277Z,52.20
2018-07-31T01:16:23.994Z,52.10
2018-07-31T01:16:55.723Z,52.20
2018-07-31T01:17:27.517Z,52.30
2018-07-31T01:17:59.214Z,52.20
2018-07-31T01:18:30.937Z,52.20
2018-07-31T01:19:02.686Z,52.10
2018-07-31T01:19:34.418Z,52.10
2018-07-31T01:20:06.138Z,52.20
2018-07-31T01:20:37.870Z,52.10
2018-07-31T01:21:09.602Z,52.10
2018-07-31T01:21:41.336Z,52.10
2018-07-31T01:22:13.040Z,52.10
2018-07-31T01:22:44.765Z,52.10
2018-07-31T01:23:16.496Z,52.10
2018-07-31T01:23:48.229Z,52.00
2018-07-31T01:24:19.960Z,52.00
2018-07-31T01:24:51.694Z,52.00
2018-07-31T01:25:23.433Z,52.00
2018-07-31T01:25:55.147Z,52.00
2018-07-31T01:26:26.897Z,52.00
2018-07-31T01:26:58.620Z,52.00
2018-07-31T01:27:30.345Z,52.10
2018-07-31T01:28:02.067Z,52.00
2018-07-31T01:28:33.791Z,52.00
2018-07-31T01:29:05.510Z,52.20
2018-07-31T01:29:37.253Z,52.00
2018-07-31T01:30:08.979Z,52.10
2018-07-31T01:30:40.712Z,52.00
2018-07-31T01:31:12.425Z,52.10
2018-07-31T01:31:44.153Z,52.00
2018-07-31T01:32:15.874Z,52.10
2018-07-31T01:32:47.617Z,52.20
2018-07-31T01:33:19.326Z,52.20
2018-07-31T01:33:51.055Z,52.20
2018-07-31T01:34:22.769Z,52.20
2018-07-31T01:34:54.488Z,52.00
2018-07-31T01:35:26.211Z,52.20
2018-07-31T01:35:57.929Z,52.20
2018-07-31T01:37:01.710Z,52.20
2018-07-31T01:37:33.434Z,52.20
2018-07-31T01:38:05.166Z,52.10
2018-07-31T01:38:36.990Z,52.20
2018-07-31T01:39:08.712Z,52.20
2018-07-31T01:39:40.445Z,52.10
2018-07-31T01:40:12.172Z,52.20
2018-07-31T01:40:43.927Z,52.10
2018-07-31T01:41:15.630Z,52.10
2018-07-31T01:41:47.346Z,52.10
2018-07-31T01:42:19.073Z,52.00
2018-07-31T01:42:50.805Z,52.10
2018-07-31T01:43:22.533Z,52.00
2018-07-31T01:43:54.253Z,52.00
2018-07-31T01:44:25.981Z,52.00
2018-07-31T01:44:57.710Z,52.00
2018-07-31T01:45:29.425Z,52.00
2018-07-31T01:46:01.367Z,52.00
2018-07-31T01:46:33.289Z,52.00
2018-07-31T01:47:05.056Z,52.00
2018-07-31T01:47:36.770Z,52.00
2018-07-31T01:48:08.518Z,52.00
2018-07-31T01:48:40.245Z,52.00
2018-07-31T01:49:12.051Z,52.00
2018-07-31T01:49:43.784Z,52.00
2018-07-31T01:50:15.506Z,52.00
2018-07-31T01:50:47.236Z,52.00
2018-07-31T01:51:18.985Z,52.60
2018-07-31T01:51:50.710Z,52.00
2018-07-31T01:52:22.443Z,51.90
2018-07-31T01:52:54.181Z,51.90
2018-07-31T01:53:26.094Z,52.00
2018-07-31T01:53:57.855Z,52.00
2018-07-31T01:54:29.584Z,52.60
2018-07-31T01:55:01.301Z,52.00
2018-07-31T01:55:33.034Z,52.00
2018-07-31T01:56:04.746Z,51.90
2018-07-31T01:56:36.468Z,51.90
2018-07-31T01:57:08.415Z,52.00
2018-07-31T01:57:40.152Z,52.00
2018-07-31T01:58:11.873Z,51.90
2018-07-31T01:58:43.598Z,52.20
2018-07-31T01:59:15.310Z,52.00
2018-07-31T01:59:47.074Z,52.00
2018-07-31T02:00:18.792Z,52.00
2018-07-31T02:00:50.525Z,52.00
2018-07-31T02:01:22.243Z,52.00
2018-07-31T02:01:53.957Z,52.00
2018-07-31T02:02:25.969Z,52.00
2018-07-31T02:02:57.704Z,52.00
2018-07-31T02:03:29.449Z,52.00
2018-07-31T02:04:01.193Z,52.10
2018-07-31T02:04:32.910Z,52.00
2018-07-31T02:05:04.633Z,52.00
2018-07-31T02:05:36.367Z,52.00
2018-07-31T02:06:08.087Z,52.00
2018-07-31T02:06:40.017Z,52.00
2018-07-31T02:07:11.762Z,52.00
2018-07-31T02:07:43.502Z,52.00
2018-07-31T02:08:15.217Z,52.10
2018-07-31T02:08:46.944Z,52.00
2018-07-31T02:09:18.658Z,52.00
2018-07-31T02:09:50.612Z,52.00
2018-07-31T02:10:22.314Z,52.00
2018-07-31T02:10:54.045Z,52.00
2018-07-31T02:11:25.832Z,52.00
2018-07-31T02:11:57.645Z,52.00
2018-07-31T02:12:29.393Z,52.00
2018-07-31T02:13:01.123Z,52.00
2018-07-31T02:13:32.861Z,52.00
2018-07-31T02:14:04.580Z,52.10
2018-07-31T02:14:36.309Z,52.00
2018-07-31T02:15:08.026Z,52.00
2018-07-31T02:15:39.746Z,52.10
2018-07-31T02:16:11.477Z,52.10
2018-07-31T02:16:43.203Z,52.10
2018-07-31T02:17:14.932Z,52.10
2018-07-31T02:17:46.849Z,52.10
2018-07-31T02:18:18.578Z,52.10
2018-07-31T02:18:50.311Z,52.10
2018-07-31T02:19:22.041Z,52.10
2018-07-31T02:19:53.775Z,52.00
2018-07-31T02:20:25.507Z,52.10
2018-07-31T02:20:57.221Z,52.10
2018-07-31T02:21:28.954Z,52.10
2018-07-31T02:22:00.689Z,52.10
2018-07-31T02:22:32.413Z,52.00
2018-07-31T02:23:04.200Z,52.00
2018-07-31T02:23:35.927Z,52.10
2018-07-31T02:24:07.657Z,52.00
2018-07-31T02:24:39.425Z,52.00
2018-07-31T02:25:11.153Z,52.00
2018-07-31T02:25:42.870Z,52.60
2018-07-31T02:26:14.599Z,52.00
2018-07-31T02:26:46.314Z,52.00
2018-07-31T02:27:18.042Z,52.00
2018-07-31T02:27:49.772Z,52.00
2018-07-31T02:28:21.813Z,52.00
2018-07-31T02:28:53.609Z,52.00
2018-07-31T02:29:25.342Z,52.10
2018-07-31T02:29:57.070Z,52.10
2018-07-31T02:30:28.787Z,52.20
2018-07-31T02:31:00.721Z,52.10
2018-07-31T02:31:32.527Z,52.10
2018-07-31T02:32:04.453Z,52.20
2018-07-31T02:32:36.178Z,52.10
2018-07-31T02:33:07.909Z,52.10
2018-07-31T02:33:39.660Z,52.10
2018-07-31T02:34:11.372Z,52.10
2018-07-31T02:34:43.096Z,52.10
2018-07-31T02:35:14.824Z,52.10
2018-07-31T02:35:46.544Z,52.10
2018-07-31T02:36:18.273Z,52.00
2018-07-31T02:36:49.989Z,52.00
2018-07-31T02:37:21.716Z,52.00
2018-07-31T02:37:53.425Z,52.00
2018-07-31T02:38:25.155Z,52.00
2018-07-31T02:38:56.885Z,52.10
2018-07-31T02:39:28.631Z,52.00
2018-07-31T02:40:00.354Z,52.20
2018-07-31T02:40:32.075Z,52.10
2018-07-31T02:41:03.852Z,52.20
2018-07-31T02:41:35.537Z,52.20
2018-07-31T02:42:07.264Z,52.30
2018-07-31T02:42:39.032Z,52.40
2018-07-31T02:43:10.756Z,52.40
2018-07-31T02:43:42.477Z,52.50
2018-07-31T02:44:14.200Z,52.60
2018-07-31T02:44:45.945Z,52.50
2018-07-31T02:45:17.684Z,52.60
2018-07-31T02:45:49.410Z,52.60
2018-07-31T02:46:21.146Z,52.70
2018-07-31T02:46:52.936Z,53.30
2018-07-31T02:47:24.827Z,52.70
2018-07-31T02:47:56.786Z,52.80
2018-07-31T02:48:28.501Z,52.80
2018-07-31T02:49:00.241Z,52.80
2018-07-31T02:49:31.977Z,52.80
2018-07-31T02:50:03.721Z,52.90
2018-07-31T02:50:35.457Z,52.90
2018-07-31T02:51:07.208Z,52.90
2018-07-31T02:51:38.954Z,53.00
2018-07-31T02:52:10.673Z,53.00
2018-07-31T02:52:42.418Z,53.00
2018-07-31T02:53:14.299Z,53.00
2018-07-31T02:53:46.262Z,53.10
2018-07-31T02:54:17.988Z,53.00
2018-07-31T02:54:49.703Z,53.10
2018-07-31T02:55:21.439Z,53.10
2018-07-31T02:55:53.161Z,53.10
2018-07-31T02:56:24.905Z,53.00
2018-07-31T02:56:56.643Z,53.10
2018-07-31T02:57:28.485Z,53.00
2018-07-31T02:58:00.222Z,53.00
2018-07-31T02:58:31.939Z,53.00
2018-07-31T02:59:03.695Z,53.00
2018-07-31T02:59:35.451Z,53.00
2018-07-31T03:00:07.177Z,53.00
2018-07-31T03:00:38.907Z,53.00
2018-07-31T03:01:10.623Z,53.00
2018-07-31T03:01:42.349Z,53.00
2018-07-31T03:02:14.078Z,53.00
2018-07-31T03:02:45.786Z,53.00
2018-07-31T03:03:17.537Z,53.10
2018-07-31T03:03:49.269Z,53.00
2018-07-31T03:04:21.000Z,53.00
2018-07-31T03:04:52.731Z,52.50
2018-07-31T03:05:24.474Z,53.00
2018-07-31T03:05:56.194Z,53.00
2018-07-31T03:06:27.915Z,53.00
2018-07-31T03:06:59.647Z,53.00
2018-07-31T03:08:03.524Z,52.90
2018-07-31T03:08:35.347Z,52.90
2018-07-31T03:09:07.252Z,52.90
2018-07-31T03:09:38.981Z,52.90
2018-07-31T03:10:10.710Z,52.90
2018-07-31T03:10:42.443Z,52.80
2018-07-31T03:11:14.206Z,52.80
2018-07-31T03:11:45.931Z,52.80
2018-07-31T03:12:17.650Z,52.80
2018-07-31T03:12:49.377Z,52.80
2018-07-31T03:13:21.104Z,52.80
2018-07-31T03:13:52.816Z,52.80
2018-07-31T03:14:24.527Z,52.90
2018-07-31T03:14:56.255Z,53.50
2018-07-31T03:15:27.994Z,52.90
2018-07-31T03:15:59.724Z,52.80
2018-07-31T03:16:31.650Z,52.70
2018-07-31T03:17:03.378Z,52.80
2018-07-31T03:17:35.106Z,53.40
2018-07-31T03:18:06.884Z,52.80
2018-07-31T03:19:10.638Z,52.70
2018-07-31T03:19:42.361Z,52.70
2018-07-31T03:20:14.117Z,52.70
2018-07-31T03:20:46.029Z,52.60
2018-07-31T03:21:17.741Z,52.50
2018-07-31T03:21:49.466Z,52.60
2018-07-31T03:22:21.185Z,52.70
2018-07-31T03:22:52.919Z,52.60
2018-07-31T03:23:24.650Z,53.20
2018-07-31T03:23:56.396Z,52.50
2018-07-31T03:24:28.114Z,52.50
2018-07-31T03:24:59.846Z,52.50
2018-07-31T03:25:31.586Z,52.60
2018-07-31T03:26:03.298Z,52.60
2018-07-31T03:26:35.034Z,52.60
2018-07-31T03:27:06.777Z,52.60
2018-07-31T03:27:38.502Z,52.70
2018-07-31T03:28:10.294Z,52.60
2018-07-31T03:28:42.194Z,52.70
2018-07-31T03:29:13.938Z,52.60
2018-07-31T03:29:45.649Z,52.60
2018-07-31T03:30:17.422Z,52.70
2018-07-31T03:30:49.155Z,52.70
2018-07-31T03:31:20.899Z,52.70
2018-07-31T03:31:52.642Z,52.70
2018-07-31T03:32:24.368Z,52.70
2018-07-31T03:32:56.098Z,52.70
2018-07-31T03:33:27.846Z,52.70
2018-07-31T03:33:59.785Z,52.70
2018-07-31T03:34:31.512Z,53.20
2018-07-31T03:35:03.232Z,52.60
2018-07-31T03:35:34.949Z,52.60
2018-07-31T03:36:06.680Z,52.70
2018-07-31T03:36:38.402Z,52.70
2018-07-31T03:37:10.121Z,52.70
2018-07-31T03:37:41.849Z,52.70
2018-07-31T03:38:13.568Z,52.70
2018-07-31T03:38:45.295Z,52.70
2018-07-31T03:39:17.049Z,52.80
2018-07-31T03:40:20.794Z,52.90
2018-07-31T03:40:52.518Z,52.80
2018-07-31T03:41:24.367Z,52.90
2018-07-31T03:41:56.046Z,52.90
2018-07-31T03:42:27.766Z,52.90
2018-07-31T03:42:59.502Z,53.00
2018-07-31T03:43:31.236Z,53.00
2018-07-31T03:44:02.964Z,53.00
2018-07-31T03:44:34.703Z,53.10
2018-07-31T03:45:06.430Z,53.10
2018-07-31T03:45:38.154Z,53.10
2018-07-31T03:46:09.906Z,53.10
2018-07-31T03:46:41.616Z,53.20
2018-07-31T03:47:13.349Z,53.10
2018-07-31T03:47:45.082Z,53.10
2018-07-31T03:48:16.834Z,53.10
2018-07-31T03:48:48.643Z,53.10
2018-07-31T03:49:20.350Z,53.10
2018-07-31T03:49:52.096Z,53.10
2018-07-31T03:50:23.981Z,53.10
2018-07-31T03:50:55.718Z,53.10
2018-07-31T03:51:27.442Z,53.10
2018-07-31T03:51:59.182Z,53.10
2018-07-31T03:52:30.910Z,53.10
2018-07-31T03:53:02.641Z,53.10
2018-07-31T03:53:34.362Z,53.20
2018-07-31T03:54:06.093Z,53.20
2018-07-31T03:54:37.802Z,53.20
2018-07-31T03:55:09.529Z,53.20
2018-07-31T03:55:41.307Z,53.20
2018-07-31T03:56:13.206Z,53.30
2018-07-31T03:56:45.105Z,53.20
2018-07-31T03:57:16.829Z,53.30
2018-07-31T03:57:48.566Z,53.20
2018-07-31T03:58:20.281Z,53.30
2018-07-31T03:58:52.006Z,53.40
2018-07-31T03:59:23.734Z,53.40
2018-07-31T03:59:55.452Z,53.40
2018-07-31T04:00:27.197Z,53.40
2018-07-31T04:00:58.912Z,53.40
2018-07-31T04:01:30.657Z,53.40
2018-07-31T04:02:02.449Z,53.40
2018-07-31T04:02:34.172Z,53.40
2018-07-31T04:03:05.899Z,53.30
2018-07-31T04:03:37.652Z,53.40
2018-07-31T04:04:09.389Z,53.40
2018-07-31T04:04:41.248Z,53.40
2018-07-31T04:05:13.097Z,53.40
2018-07-31T04:05:44.815Z,53.40
2018-07-31T04:06:16.547Z,53.40
2018-07-31T04:06:48.308Z,53.40
2018-07-31T04:07:20.020Z,54.00
2018-07-31T04:07:51.756Z,53.40
2018-07-31T04:08:23.484Z,53.40
2018-07-31T04:08:55.216Z,53.50
2018-07-31T04:09:26.936Z,53.40
2018-07-31T04:09:58.677Z,53.50
2018-07-31T04:10:30.387Z,53.50
2018-07-31T04:11:02.108Z,53.50
2018-07-31T04:11:33.841Z,53.50
2018-07-31T04:12:05.559Z,54.10
2018-07-31T04:12:37.281Z,53.50
2018-07-31T04:13:09.009Z,53.50
2018-07-31T04:13:40.776Z,53.60
2018-07-31T04:14:12.507Z,53.60
2018-07-31T04:14:44.232Z,53.60
2018-07-31T04:15:15.948Z,53.70
2018-07-31T04:15:47.662Z,53.60
2018-07-31T04:16:19.394Z,53.70
2018-07-31T04:16:51.201Z,53.80
2018-07-31T04:17:23.131Z,53.80
2018-07-31T04:17:54.850Z,54.10
2018-07-31T04:18:26.573Z,53.70
2018-07-31T04:18:58.314Z,53.80
2018-07-31T04:19:30.040Z,53.80
2018-07-31T04:20:01.769Z,53.80
2018-07-31T04:20:33.507Z,53.90
2018-07-31T04:21:05.236Z,53.90
2018-07-31T04:21:36.966Z,53.90
2018-07-31T04:22:08.696Z,54.00
2018-07-31T04:22:40.439Z,54.00
2018-07-31T04:23:12.160Z,54.00
2018-07-31T04:23:43.901Z,54.00
2018-07-31T04:24:15.625Z,53.90
2018-07-31T04:24:47.336Z,53.90
2018-07-31T04:25:19.069Z,53.90
2018-07-31T04:25:50.804Z,53.80
2018-07-31T04:26:22.520Z,53.90
2018-07-31T04:26:54.253Z,53.80
2018-07-31T04:27:25.979Z,53.80
2018-07-31T04:27:57.707Z,53.80
2018-07-31T04:28:29.426Z,53.70
2018-07-31T04:29:01.152Z,53.70
2018-07-31T04:29:32.879Z,53.80
2018-07-31T04:30:04.623Z,53.80
2018-07-31T04:30:36.552Z,53.80
2018-07-31T04:31:40.300Z,53.80
2018-07-31T04:32:12.033Z,53.80
2018-07-31T04:32:43.768Z,53.80
2018-07-31T04:33:15.492Z,53.90
2018-07-31T04:33:47.221Z,54.00
2018-07-31T04:34:18.942Z,54.00
2018-07-31T04:34:50.667Z,54.00
2018-07-31T04:35:22.389Z,54.00
2018-07-31T04:35:54.187Z,54.00
2018-07-31T04:36:26.037Z,54.00
2018-07-31T04:36:57.766Z,54.00
2018-07-31T04:37:29.486Z,54.00
2018-07-31T04:38:01.230Z,53.80
2018-07-31T04:38:32.961Z,53.90
2018-07-31T04:39:04.668Z,53.80
2018-07-31T04:39:36.421Z,53.80
2018-07-31T04:40:08.134Z,53.70
2018-07-31T04:40:39.849Z,53.70
2018-07-31T04:41:11.610Z,53.70
2018-07-31T04:41:43.514Z,53.60
2018-07-31T04:42:15.260Z,53.60
2018-07-31T04:42:47.178Z,53.50
2018-07-31T04:43:18.904Z,53.50
2018-07-31T04:43:50.626Z,53.50
2018-07-31T04:44:22.374Z,53.50
2018-07-31T04:44:54.091Z,53.40
2018-07-31T04:45:25.833Z,53.40
2018-07-31T04:45:57.548Z,53.40
2018-07-31T04:46:29.275Z,53.40
2018-07-31T04:47:01.011Z,53.70
2018-07-31T04:47:32.925Z,53.40
2018-07-31T04:48:04.651Z,53.40
2018-07-31T04:48:36.377Z,53.40
2018-07-31T04:49:08.101Z,53.30
2018-07-31T04:49:39.835Z,53.20
2018-07-31T04:50:11.553Z,53.10
2018-07-31T04:50:43.271Z,53.10
2018-07-31T04:51:15.020Z,53.10
2018-07-31T04:51:46.738Z,53.10
2018-07-31T04:52:18.467Z,53.10
2018-07-31T04:52:50.214Z,53.50
2018-07-31T04:53:21.949Z,53.10
2018-07-31T04:53:53.678Z,53.20
2018-07-31T04:54:25.402Z,53.00
2018-07-31T04:54:57.138Z,53.00
2018-07-31T04:55:28.889Z,53.00
2018-07-31T04:56:00.624Z,53.00
2018-07-31T04:56:32.357Z,53.00
2018-07-31T04:57:04.075Z,53.10
2018-07-31T04:57:35.808Z,53.10
2018-07-31T04:58:07.546Z,53.10
2018-07-31T04:58:39.270Z,53.10
2018-07-31T04:59:10.989Z,53.10
2018-07-31T04:59:42.721Z,53.10
2018-07-31T05:00:14.448Z,53.10
2018-07-31T05:00:46.191Z,53.20
2018-07-31T05:01:17.978Z,53.20
2018-07-31T05:01:49.861Z,53.20
2018-07-31T05:02:21.806Z,53.20
2018-07-31T05:02:53.520Z,53.30
2018-07-31T05:03:25.264Z,53.30
2018-07-31T05:03:57.005Z,53.30
2018-07-31T05:04:28.755Z,53.40
2018-07-31T05:05:00.685Z,53.40
2018-07-31T05:05:32.439Z,53.50
2018-07-31T05:06:04.161Z,53.50
2018-07-31T05:06:35.877Z,53.50
2018-07-31T05:07:07.626Z,53.60
2018-07-31T05:07:39.358Z,53.60
2018-07-31T05:08:11.256Z,53.60
2018-07-31T05:08:42.985Z,53.60
2018-07-31T05:09:14.769Z,53.70
2018-07-31T05:09:46.502Z,53.70
2018-07-31T05:10:18.248Z,53.70
2018-07-31T05:10:49.985Z,53.70
2018-07-31T05:11:21.734Z,53.80
2018-07-31T05:11:53.468Z,53.80
2018-07-31T05:12:25.200Z,53.80
2018-07-31T05:12:56.918Z,53.90
2018-07-31T05:13:28.641Z,53.90
2018-07-31T05:14:00.480Z,53.90
2018-07-31T05:14:32.260Z,53.90
2018-07-31T05:15:04.006Z,53.90
2018-07-31T05:15:35.764Z,53.90
2018-07-31T05:16:07.642Z,53.90
2018-07-31T05:16:39.373Z,53.90
2018-07-31T05:17:11.093Z,53.90
2018-07-31T05:17:42.811Z,53.90
2018-07-31T05:18:14.590Z,53.90
2018-07-31T05:18:46.543Z,53.80
2018-07-31T05:19:18.461Z,53.90
2018-07-31T05:19:50.168Z,53.90
2018-07-31T05:20:21.911Z,53.90
2018-07-31T05:20:53.633Z,53.90
2018-07-31T05:21:25.438Z,53.90
2018-07-31T05:21:57.153Z,53.90
2018-07-31T05:22:28.890Z,54.50
2018-07-31T05:23:00.609Z,53.80
2018-07-31T05:23:32.325Z,53.80
2018-07-31T05:24:04.055Z,53.80
2018-07-31T05:24:35.801Z,53.90
2018-07-31T05:25:07.591Z,53.80
2018-07-31T05:25:39.457Z,53.90
2018-07-31T05:26:11.206Z,54.50
2018-07-31T05:26:43.030Z,53.90
2018-07-31T05:27:14.722Z,53.90
2018-07-31T05:28:18.444Z,54.00
2018-07-31T05:28:50.173Z,54.00
2018-07-31T05:29:21.890Z,54.00
2018-07-31T05:29:53.613Z,54.00
2018-07-31T05:30:25.333Z,54.00
2018-07-31T05:30:57.066Z,54.00
2018-07-31T05:31:28.789Z,54.00
2018-07-31T05:32:00.936Z,54.00
2018-07-31T05:32:32.730Z,54.00
2018-07-31T05:33:04.597Z,54.00
2018-07-31T05:33:36.327Z,53.90
2018-07-31T05:34:08.050Z,53.90
2018-07-31T05:34:39.792Z,53.90
2018-07-31T05:35:11.517Z,53.90
2018-07-31T05:35:43.233Z,53.90
2018-07-31T05:36:14.957Z,53.90
2018-07-31T05:36:46.681Z,53.90
2018-07-31T05:37:18.407Z,53.90
2018-07-31T05:37:50.123Z,53.90
2018-07-31T05:38:21.877Z,53.80
2018-07-31T05:38:53.598Z,53.80
2018-07-31T05:39:25.318Z,54.00
2018-07-31T05:39:57.051Z,53.80
2018-07-31T05:40:28.772Z,53.80
2018-07-31T05:41:00.537Z,53.80
2018-07-31T05:41:32.232Z,53.80
2018-07-31T05:42:03.948Z,53.80
2018-07-31T05:42:35.664Z,53.80
2018-07-31T05:43:07.390Z,53.70
2018-07-31T05:43:39.132Z,53.60
2018-07-31T05:44:11.046Z,53.60
2018-07-31T05:44:42.761Z,53.50
2018-07-31T05:45:14.505Z,53.50
2018-07-31T05:45:46.261Z,53.60
2018-07-31T05:46:18.092Z,53.60
2018-07-31T05:46:49.941Z,53.60
2018-07-31T05:47:21.666Z,53.70
2018-07-31T05:47:53.400Z,53.70
2018-07-31T05:48:25.117Z,53.60
2018-07-31T05:48:56.840Z,53.70
2018-07-31T05:49:28.564Z,53.80
2018-07-31T05:50:00.321Z,53.70
2018-07-31T05:50:32.044Z,53.80
2018-07-31T05:51:03.775Z,53.70
2018-07-31T05:51:35.496Z,53.70
2018-07-31T05:52:07.227Z,53.70
2018-07-31T05:52:38.951Z,53.70
2018-07-31T05:53:10.673Z,53.80
2018-07-31T05:53:42.404Z,53.70
2018-07-31T05:54:14.141Z,53.80
2018-07-31T05:54:45.866Z,53.70
2018-07-31T05:55:17.621Z,53.70
2018-07-31T05:55:49.352Z,53.70
2018-07-31T05:56:21.076Z,53.60
2018-07-31T05:56:52.815Z,53.70
2018-07-31T05:57:24.578Z,53.70
2018-07-31T05:57:56.454Z,53.60
2018-07-31T05:58:28.185Z,53.60
2018-07-31T05:58:59.918Z,53.60
2018-07-31T05:59:31.641Z,53.50
2018-07-31T06:00:03.406Z,53.60
2018-07-31T06:00:35.130Z,53.50
2018-07-31T06:01:06.853Z,53.60
2018-07-31T06:01:38.588Z,53.50
2018-07-31T06:02:10.309Z,53.50
2018-07-31T06:02:42.045Z,53.60
2018-07-31T06:03:13.770Z,53.50
2018-07-31T06:03:45.488Z,53.50
2018-07-31T06:04:17.219Z,53.50
2018-07-31T06:04:48.951Z,53.50
2018-07-31T06:05:20.695Z,53.50
2018-07-31T06:05:52.411Z,53.60
2018-07-31T06:06:24.136Z,53.60
2018-07-31T06:06:55.869Z,53.50
2018-07-31T06:07:27.601Z,53.60
2018-07-31T06:07:59.314Z,53.50
2018-07-31T06:08:31.048Z,53.70
2018-07-31T06:09:02.766Z,53.60
2018-07-31T06:09:34.550Z,53.60
2018-07-31T06:10:06.442Z,53.60
2018-07-31T06:10:38.160Z,53.50
2018-07-31T06:11:09.877Z,53.50
2018-07-31T06:11:41.599Z,53.50
2018-07-31T06:12:13.410Z,53.50
2018-07-31T06:12:45.137Z,53.50
2018-07-31T06:13:16.870Z,53.40
2018-07-31T06:13:48.593Z,53.50
2018-07-31T06:14:20.317Z,53.50
2018-07-31T06:14:52.038Z,53.50
2018-07-31T06:15:23.843Z,53.50
2018-07-31T06:15:55.715Z,53.60
2018-07-31T06:16:27.447Z,53.60
2018-07-31T06:16:59.153Z,53.60
2018-07-31T06:17:30.882Z,53.60
2018-07-31T06:18:02.609Z,53.70
2018-07-31T06:18:34.343Z,53.70
2018-07-31T06:19:06.058Z,53.70
2018-07-31T06:19:37.781Z,53.70
2018-07-31T06:20:09.542Z,53.70
2018-07-31T06:20:41.266Z,53.70
2018-07-31T06:21:13.177Z,53.60
2018-07-31T06:21:44.914Z,53.60
2018-07-31T06:22:16.645Z,53.70
2018-07-31T06:22:48.361Z,54.30
2018-07-31T06:23:20.083Z,53.60
2018-07-31T06:23:51.809Z,53.60
2018-07-31T06:24:23.546Z,53.60
2018-07-31T06:24:55.276Z,53.60
2018-07-31T06:25:27.035Z,53.60
2018-07-31T06:25:58.936Z,53.60
2018-07-31T06:26:30.687Z,53.70
2018-07-31T06:27:02.464Z,53.70
2018-07-31T06:27:34.347Z,53.70
2018-07-31T06:28:06.193Z,53.70
2018-07-31T06:28:37.914Z,53.60
2018-07-31T06:29:09.642Z,53.70
2018-07-31T06:29:41.373Z,53.60
2018-07-31T06:30:13.098Z,53.50
2018-07-31T06:30:44.823Z,53.50
2018-07-31T06:31:16.542Z,53.50
2018-07-31T06:31:48.274Z,53.50
2018-07-31T06:32:19.993Z,53.50
2018-07-31T06:32:51.726Z,53.50
2018-07-31T06:33:23.637Z,53.50
2018-07-31T06:33:55.362Z,53.40
2018-07-31T06:34:27.096Z,53.50
2018-07-31T06:34:59.022Z,53.40
2018-07-31T06:35:30.825Z,53.50
2018-07-31T06:36:02.532Z,53.40
2018-07-31T06:36:34.265Z,53.40
2018-07-31T06:37:05.990Z,53.40
2018-07-31T06:37:37.717Z,53.40
2018-07-31T06:38:09.453Z,53.40
2018-07-31T06:38:41.170Z,53.30
2018-07-31T06:39:12.914Z,53.30
2018-07-31T06:39:44.630Z,53.30
2018-07-31T06:40:16.357Z,53.30
2018-07-31T06:40:48.101Z,53.30
2018-07-31T06:41:19.833Z,53.30
2018-07-31T06:41:51.555Z,53.30
2018-07-31T06:42:23.287Z,53.30
2018-07-31T06:42:55.011Z,53.30
2018-07-31T06:43:26.764Z,53.30
2018-07-31T06:43:58.678Z,53.20
2018-07-31T06:44:30.389Z,53.20
2018-07-31T06:45:02.138Z,53.20
2018-07-31T06:45:33.862Z,53.20
2018-07-31T06:46:05.660Z,53.20
2018-07-31T06:46:37.573Z,53.10
2018-07-31T06:47:09.298Z,53.00
2018-07-31T06:47:41.045Z,53.00
2018-07-31T06:48:12.776Z,52.90
2018-07-31T06:48:44.520Z,52.80
2018-07-31T06:49:16.299Z,52.60
2018-07-31T06:49:48.178Z,52.60
2018-07-31T06:50:19.905Z,52.60
2018-07-31T06:50:51.657Z,52.90
2018-07-31T06:51:23.394Z,52.60
2018-07-31T06:51:55.109Z,52.60
2018-07-31T06:52:26.842Z,52.40